Home > Products > Valid Products > TAF

000
FTUS43 KAPX 271127
TAFTVC
TAF
KTVC 271127Z 2712/2812 00000KT P6SM FEW080
     FM271400 05005KT P6SM SKC
     FM272000 01005KT P6SM SKC
     FM280000 00000KT P6SM SCT200
     FM280600 00000KT P6SM BKN200=



000
FTUS43 KAPX 271127
TAFPLN
TAF
KPLN 271127Z 2712/2812 02004KT P6SM FEW009
     FM271400 05005KT P6SM SKC
     FM280000 00000KT P6SM SCT200
     FM280600 00000KT P6SM BKN200=



000
FTUS43 KAPX 271127
TAFAPN
TAF
KAPN 271127Z 2712/2812 03007KT P6SM FEW030
     FM280000 00000KT P6SM SKC
     FM280900 00000KT P6SM BKN200=



000
FTUS43 KAPX 270847 AAA
TAFAPN
TAF AMD
KAPN 270847Z 2709/2806 04008KT 6SM -SHSN BKN035
      TEMPO 2709/2710 2SM -SHSN BR BKN025
     FM271000 03006KT P6SM VCSH BKN035
     FM271800 02008KT P6SM FEW030
     FM280000 00000KT P6SM SKC=



000
FTUS43 KAPX 270520
TAFAPN
TAF
KAPN 270520Z 2706/2806 06004KT P6SM VCSH OVC035
      TEMPO 2706/2710 5SM -SHSN OVC025
     FM271000 03006KT P6SM VCSH BKN035
     FM271800 02008KT P6SM FEW030
     FM280000 00000KT P6SM SKC=



000
FTUS43 KAPX 270520
TAFPLN
TAF
KPLN 270520Z 2706/2806 09004KT P6SM VCSH OVC070
     FM271400 05005KT P6SM SCT100
     FM280000 00000KT P6SM SCT200=



000
FTUS43 KAPX 270520
TAFTVC
TAF
KTVC 270520Z 2706/2806 10005KT P6SM OVC060
     FM271400 06005KT P6SM SCT100
     FM272000 01005KT P6SM FEW100
     FM280000 00000KT P6SM SCT200=



000
FTUS43 KAPX 270225 AAA
TAFAPN
TAF AMD
KAPN 270225Z 2702/2724 07005KT P6SM VCSH OVC035
     FM270700 03005KT P6SM VCSH BKN030 OVC150
     FM271000 03006KT P6SM SCT030 BKN140
     FM271400 02008KT P6SM FEW150=



000
FTUS43 KAPX 262321
TAFAPN
TAF
KAPN 262321Z 2700/2724 09006KT P6SM VCSH OVC035
      TEMPO 2700/2704 2SM -SHSN BKN021 OVC030
     FM270700 03005KT P6SM VCSH BKN030 OVC150
     FM271000 03006KT P6SM SCT030 BKN140
     FM271400 02008KT P6SM FEW150=



000
FTUS43 KAPX 262321
TAFPLN
TAF
KPLN 262321Z 2700/2724 09006KT P6SM VCSH SCT035 BKN110
     FM271000 VRB03KT P6SM SCT035 BKN120
     FM271500 06004KT P6SM SCT100=



000
FTUS43 KAPX 262321
TAFTVC
TAF
KTVC 262321Z 2700/2724 10003KT P6SM BKN090
     FM271500 03004KT P6SM SCT100=



000
FTUS43 KAPX 262149 AAA
TAFAPN
TAF AMD
KAPN 262149Z 2622/2718 11006KT P6SM -SHSN BKN035
      TEMPO 2622/2624 1SM -SHSN BKN018
     FM270800 04005KT P6SM BKN035 BKN080
     FM271500 04008KT P6SM SCT035=



000
FTUS43 KAPX 261739
TAFTVC
TAF
KTVC 261739Z 2618/2718 13005KT P6SM BKN100
     FM270300 VRB03KT P6SM BKN080
     FM271500 06005KT P6SM SCT100=



000
FTUS43 KAPX 261739
TAFPLN
TAF
KPLN 261739Z 2618/2718 13005KT P6SM BKN100
     FM270700 08003KT P6SM SCT040 BKN080
     FM271500 08004KT P6SM SCT100=



000
FTUS43 KAPX 261739
TAFAPN
TAF
KAPN 261739Z 2618/2718 11006KT P6SM -SHSN BKN030
      TEMPO 2618/2622 5SM -SHSN
     FM270800 04005KT P6SM BKN035 BKN080
     FM271500 04008KT P6SM SCT035=



000
FTUS43 KAPX 261120
TAFTVC
TAF
KTVC 261120Z 2612/2712 00000KT P6SM SCT250
     FM261500 13005KT P6SM BKN100
     FM270400 10003KT P6SM SCT040 BKN080=



000
FTUS43 KAPX 261120
TAFAPN
TAF
KAPN 261120Z 2612/2712 VRB03KT P6SM VCSH BKN025
      TEMPO 2612/2615 3SM -SHSN BKN018
     FM261800 10006KT P6SM OVC035
     FM270800 04005KT P6SM BKN035 BKN100=



000
FTUS43 KAPX 261120
TAFPLN
TAF
KPLN 261120Z 2612/2712 00000KT P6SM SCT250
     FM261500 12005KT P6SM BKN100
     FM270400 09003KT P6SM SCT040 BKN080=



000
FTUS43 KAPX 261053 AAB
TAFAPN
TAF AMD
KAPN 261053Z 2611/2706 VRB03KT P6SM VCSH BKN025
      TEMPO 2611/2615 3SM -SHSN BKN018
     FM261700 11008KT P6SM BKN035
     FM270100 11005KT P6SM SCT035 BKN100=



000
FTUS43 KAPX 260803 AAA
TAFAPN
TAF AMD
KAPN 260803Z 2608/2706 04003KT P6SM FEW025
      TEMPO 2608/2611 BKN018
     FM261100 07005KT P6SM BKN025
     FM261700 11008KT P6SM BKN035
     FM270100 11005KT P6SM SCT035 BKN100=



000
FTUS43 KAPX 260520
TAFAPN
TAF
KAPN 260520Z 2606/2706 04003KT P6SM FEW025
     FM261100 07005KT P6SM BKN025
     FM261700 11008KT P6SM BKN035
     FM270100 11005KT P6SM SCT035 BKN100=



000
FTUS43 KAPX 260520
TAFPLN
TAF
KPLN 260520Z 2606/2706 00000KT P6SM SCT250
     FM261500 14006KT P6SM BKN100
     FM270100 11004KT P6SM BKN100=



000
FTUS43 KAPX 260520
TAFTVC
TAF
KTVC 260520Z 2606/2706 00000KT P6SM SCT250
     FM261500 15007KT P6SM BKN100
     FM270100 11004KT P6SM BKN100=



000
FTUS43 KAPX 252324
TAFPLN
TAF
KPLN 252324Z 2600/2624 00000KT P6SM SCT250
     FM261500 14006KT P6SM BKN100=



000
FTUS43 KAPX 252324
TAFAPN
TAF
KAPN 252324Z 2600/2624 04007KT P6SM SCT026
     FM260200 06004KT P6SM SCT025
     FM260900 07005KT P6SM BKN018
     FM261400 11008KT P6SM BKN035=



000
FTUS43 KAPX 252324
TAFTVC
TAF
KTVC 252324Z 2600/2624 00000KT P6SM SCT250
     FM261500 15007KT P6SM BKN100=



000
FTUS43 KAPX 252056 AAA
TAFAPN
TAF AMD
KAPN 252056Z 2521/2618 04007KT P6SM SCT026
     FM260200 06004KT P6SM SCT025
     FM260900 07003KT P6SM BKN018=



000
FTUS43 KAPX 251725
TAFAPN
TAF
KAPN 251725Z 2518/2618 07010KT P6SM OVC022
     FM260200 06004KT P6SM SCT025
     FM260900 07003KT P6SM BKN015=



000
FTUS43 KAPX 251725
TAFTVC
TAF
KTVC 251725Z 2518/2618 06007KT P6SM BKN250
     FM260000 00000KT P6SM SCT250
     FM261500 14007KT P6SM BKN100=



000
FTUS43 KAPX 251725
TAFPLN
TAF
KPLN 251725Z 2518/2618 10008KT P6SM BKN250
     FM260100 00000KT P6SM SCT250
     FM261500 14004KT P6SM BKN100=



000
FTUS43 KAPX 251120
TAFTVC
TAF
KTVC 251120Z 2512/2612 02009KT P6SM BKN018
     FM251400 03008KT P6SM SCT035
     FM260000 00000KT P6SM SKC=



000
FTUS43 KAPX 251120
TAFPLN
TAF
KPLN 251120Z 2512/2612 36008KT P6SM SKC
     FM251400 04007KT P6SM FEW035
     FM260000 00000KT P6SM SKC=



000
FTUS43 KAPX 251120
TAFAPN
TAF
KAPN 251120Z 2512/2612 35008KT P6SM BKN018
     FM251500 03009KT P6SM SCT035
     FM260000 00000KT P6SM SKC=



000
FTUS43 KAPX 250903 AAA
TAFTVC
TAF AMD
KTVC 250903Z 2509/2606 05009KT P6SM BKN018
     FM251400 05008KT P6SM SCT035
     FM260200 05003KT P6SM SKC=



000
FTUS43 KAPX 250902 AAB
TAFAPN
TAF AMD
KAPN 250902Z 2509/2606 35010KT P6SM BKN018
     FM251500 03011KT P6SM SCT035
     FM252300 04005KT P6SM SCT035=



000
FTUS43 KAPX 250804 AAA
TAFAPN
TAF AMD
KAPN 250804Z 2508/2606 35010KT P6SM SCT025
     FM251500 03011KT P6SM SCT035
     FM252300 04005KT P6SM SCT035=



000
FTUS43 KAPX 250804 AAA
TAFAPN
TAF AMD
KAPN 250804Z 2508/2606 35010KT P6SM SCT025
     FM251500 03011KT P6SM SCT035
     FM252300 04005KT P6SM SCT035=



000
FTUS43 KAPX 250522
TAFTVC
TAF
KTVC 250522Z 2506/2606 02010KT P6SM BKN025
     FM250900 06008KT P6SM SCT035
     FM251400 05008KT P6SM SCT035
     FM260200 05003KT P6SM SKC=



000
FTUS43 KAPX 250522
TAFAPN
TAF
KAPN 250522Z 2506/2606 35008KT P6SM BKN025
     FM251500 03011KT P6SM SCT035
     FM252300 04005KT P6SM SCT035=



000
FTUS43 KAPX 250522
TAFPLN
TAF
KPLN 250522Z 2506/2606 01006KT P6SM SKC
     FM251400 04007KT P6SM FEW035
     FM260000 00000KT P6SM SKC=



000
FTUS43 KAPX 250443 AAA
TAFAPN
TAF AMD
KAPN 250443Z 2505/2524 34011G20KT P6SM BKN025
     FM250600 34008KT P6SM BKN035
     FM251500 03011KT P6SM SCT035
     FM252300 04005KT P6SM SCT035=



000
FTUS43 KAPX 250252 AAA
TAFPLN
TAF AMD
KPLN 250252Z 2503/2524 33012KT P6SM SCT025
     FM250500 01008KT P6SM SKC
     FM251400 04007KT P6SM FEW035=



000
FTUS43 KAPX 242330
TAFTVC
TAF
KTVC 242330Z 2500/2524 35012G18KT P6SM OVC025
      TEMPO 2500/2503 3SM -SN OVC012
     FM250600 02006KT P6SM BKN035
     FM250900 06008KT P6SM SCT035
     FM251400 05008KT P6SM SCT035=



000
FTUS43 KAPX 242330
TAFPLN
TAF
KPLN 242330Z 2500/2524 33013G24KT P6SM OVC025
     FM250400 01010KT P6SM SCT035
     FM251400 04007KT P6SM FEW035=



000
FTUS43 KAPX 242330
TAFAPN
TAF
KAPN 242330Z 2500/2524 33010G23KT P6SM VCSH BKN035 OVC050
     FM250400 34008KT P6SM BKN035
     FM251500 03010KT P6SM SCT035=



000
FTUS43 KAPX 242227 AAB
TAFTVC
TAF AMD
KTVC 242227Z 2422/2518 35010G15KT P6SM OVC025
      TEMPO 2422/2424 3SM -SN OVC015
     FM250600 02006KT P6SM BKN035
     FM251400 04008KT P6SM SCT035=



000
FTUS43 KAPX 242000 AAA
TAFTVC
TAF AMD
KTVC 242000Z 2420/2518 31008KT P6SM VCSH OVC015
     FM242200 32010G15KT P6SM BKN025
     FM250600 02006KT P6SM BKN035
     FM251400 04008KT P6SM SCT035=



000
FTUS43 KAPX 241959 AAB
TAFAPN
TAF AMD
KAPN 241959Z 2420/2518 28008KT P6SM VCSH BKN018 OVC050
     FM242100 32010G15KT P6SM VCSH BKN025 OVC050
     FM250400 35006KT P6SM VCSH OVC015
     FM251400 02010KT P6SM BKN025=



000
FTUS43 KAPX 241953 AAA
TAFAPN
TAF AMD
KAPN 241953Z 2420/2518 28008KT P6SM VCSH BKN025 OVC050
     FM242100 32010G15KT P6SM VCSH BKN025 OVC050
     FM250400 35006KT P6SM VCSH OVC015
     FM251400 02010KT P6SM BKN025=



000
FTUS43 KAPX 241816 AAA
TAFPLN
TAF AMD
KPLN 241816Z 2418/2518 32012G20KT P6SM VCSH OVC015
     FM242100 31010G16KT P6SM OVC025
     FM250400 01005KT P6SM SCT035
     FM251400 04006KT P6SM FEW035=



000
FTUS43 KAPX 241728
TAFTVC
TAF
KTVC 241728Z 2418/2518 28008KT P6SM VCSH OVC025
     FM242200 32010G15KT P6SM BKN025
     FM250600 02006KT P6SM BKN035
     FM251400 04008KT P6SM SCT035=



000
FTUS43 KAPX 241728
TAFAPN
TAF
KAPN 241728Z 2418/2518 28008KT P6SM VCSH OVC015
     FM242200 32008KT P6SM VCSH OVC015
     FM250400 35006KT P6SM VCSH OVC015
     FM251400 02010KT P6SM BKN025=



000
FTUS43 KAPX 241728
TAFPLN
TAF
KPLN 241728Z 2418/2518 29010KT P6SM VCSH OVC035
     FM241900 30010G15KT P6SM VCSH OVC015
     FM242100 31010G16KT P6SM OVC025
     FM250400 01005KT P6SM SCT035
     FM251400 04006KT P6SM FEW035=



    US Dept of Commerce
    National Oceanic and Atmospheric Administration
    National Weather Service
    1325 East West Highway
    Silver Spring, MD 20910
    Page Author: NWS Internet Services Team
Disclaimer
Information Quality
Credits
Glossary
Privacy Policy
Freedom of Information Act (FOIA)
About Us
Career Opportunities